sensor_id;sensor_type;location;lat;lon;timestamp;temperature;humidity
7218;DHT22;3650;53.580;10.094;2022-12-24T00:01:30;8.40;99.60
7218;DHT22;3650;53.580;10.094;2022-12-24T00:03:57;8.50;99.80
7218;DHT22;3650;53.580;10.094;2022-12-24T00:06:24;8.40;99.60
7218;DHT22;3650;53.580;10.094;2022-12-24T00:08:51;8.50;99.60
7218;DHT22;3650;53.580;10.094;2022-12-24T00:11:19;8.40;99.50
7218;DHT22;3650;53.580;10.094;2022-12-24T00:13:47;8.40;99.70
7218;DHT22;3650;53.580;10.094;2022-12-24T00:16:14;8.40;99.40
7218;DHT22;3650;53.580;10.094;2022-12-24T00:18:41;8.40;99.20
7218;DHT22;3650;53.580;10.094;2022-12-24T00:21:08;8.30;98.40
7218;DHT22;3650;53.580;10.094;2022-12-24T00:23:35;8.30;99.20
7218;DHT22;3650;53.580;10.094;2022-12-24T00:26:02;8.30;99.80
7218;DHT22;3650;53.580;10.094;2022-12-24T00:28:29;8.30;99.90
7218;DHT22;3650;53.580;10.094;2022-12-24T00:30:57;8.30;99.70
7218;DHT22;3650;53.580;10.094;2022-12-24T00:33:24;8.30;99.50
7218;DHT22;3650;53.580;10.094;2022-12-24T00:35:51;8.30;99.10
7218;DHT22;3650;53.580;10.094;2022-12-24T00:38:18;8.20;98.70
7218;DHT22;3650;53.580;10.094;2022-12-24T00:40:45;8.30;99.20
7218;DHT22;3650;53.580;10.094;2022-12-24T00:43:12;8.30;99.20
7218;DHT22;3650;53.580;10.094;2022-12-24T00:45:39;8.20;99.50
7218;DHT22;3650;53.580;10.094;2022-12-24T00:48:07;8.20;99.60
7218;DHT22;3650;53.580;10.094;2022-12-24T00:50:34;8.30;99.70
7218;DHT22;3650;53.580;10.094;2022-12-24T00:53:01;8.30;99.80
7218;DHT22;3650;53.580;10.094;2022-12-24T00:55:28;8.30;99.80
7218;DHT22;3650;53.580;10.094;2022-12-24T00:57:54;8.30;99.60
7218;DHT22;3650;53.580;10.094;2022-12-24T01:00:21;8.30;99.70
7218;DHT22;3650;53.580;10.094;2022-12-24T01:02:48;8.30;99.70
7218;DHT22;3650;53.580;10.094;2022-12-24T01:05:16;8.30;99.70
7218;DHT22;3650;53.580;10.094;2022-12-24T01:07:46;8.30;99.70
7218;DHT22;3650;53.580;10.094;2022-12-24T01:10:14;8.30;99.60
7218;DHT22;3650;53.580;10.094;2022-12-24T01:12:42;8.30;99.40
7218;DHT22;3650;53.580;10.094;2022-12-24T01:15:09;8.30;99.20
7218;DHT22;3650;53.580;10.094;2022-12-24T01:17:37;8.30;99.10
7218;DHT22;3650;53.580;10.094;2022-12-24T01:20:05;8.30;99.10
7218;DHT22;3650;53.580;10.094;2022-12-24T01:22:34;8.30;99.20
7218;DHT22;3650;53.580;10.094;2022-12-24T01:25:00;8.30;99.40
7218;DHT22;3650;53.580;10.094;2022-12-24T01:27:27;8.30;99.50
7218;DHT22;3650;53.580;10.094;2022-12-24T01:29:54;8.30;99.40
7218;DHT22;3650;53.580;10.094;2022-12-24T01:32:21;8.30;99.30
7218;DHT22;3650;53.580;10.094;2022-12-24T01:34:48;8.40;99.30
7218;DHT22;3650;53.580;10.094;2022-12-24T01:37:14;8.30;99.30
7218;DHT22;3650;53.580;10.094;2022-12-24T01:39:43;8.30;99.20
7218;DHT22;3650;53.580;10.094;2022-12-24T01:42:16;8.40;99.10
7218;DHT22;3650;53.580;10.094;2022-12-24T01:45:34;8.40;99.10
7218;DHT22;3650;53.580;10.094;2022-12-24T01:48:13;8.40;99.10
7218;DHT22;3650;53.580;10.094;2022-12-24T01:50:41;8.40;99.00
7218;DHT22;3650;53.580;10.094;2022-12-24T01:53:10;8.40;99.00
7218;DHT22;3650;53.580;10.094;2022-12-24T01:55:40;8.30;99.00
7218;DHT22;3650;53.580;10.094;2022-12-24T01:58:08;8.30;99.00
7218;DHT22;3650;53.580;10.094;2022-12-24T02:00:36;8.30;98.90
7218;DHT22;3650;53.580;10.094;2022-12-24T02:03:03;8.30;98.80
7218;DHT22;3650;53.580;10.094;2022-12-24T02:05:33;8.30;98.80
7218;DHT22;3650;53.580;10.094;2022-12-24T02:08:03;8.30;98.80
7218;DHT22;3650;53.580;10.094;2022-12-24T02:10:30;8.30;98.90
7218;DHT22;3650;53.580;10.094;2022-12-24T02:12:59;8.30;98.90
7218;DHT22;3650;53.580;10.094;2022-12-24T02:15:28;8.30;99.00
7218;DHT22;3650;53.580;10.094;2022-12-24T02:18:02;8.30;99.00
7218;DHT22;3650;53.580;10.094;2022-12-24T02:24:10;8.30;98.90
7218;DHT22;3650;53.580;10.094;2022-12-24T02:26:59;8.30;99.00
7218;DHT22;3650;53.580;10.094;2022-12-24T02:29:48;8.30;99.30
7218;DHT22;3650;53.580;10.094;2022-12-24T02:32:21;8.30;98.90
7218;DHT22;3650;53.580;10.094;2022-12-24T02:34:51;8.30;98.70
7218;DHT22;3650;53.580;10.094;2022-12-24T02:37:22;8.30;98.70
7218;DHT22;3650;53.580;10.094;2022-12-24T02:39:53;8.30;98.60
7218;DHT22;3650;53.580;10.094;2022-12-24T02:42:26;8.30;98.70
7218;DHT22;3650;53.580;10.094;2022-12-24T02:44:59;8.30;98.70
7218;DHT22;3650;53.580;10.094;2022-12-24T02:47:27;8.30;98.70
7218;DHT22;3650;53.580;10.094;2022-12-24T02:49:55;8.30;98.80
7218;DHT22;3650;53.580;10.094;2022-12-24T02:52:30;8.30;98.90
7218;DHT22;3650;53.580;10.094;2022-12-24T02:55:02;8.30;98.90
7218;DHT22;3650;53.580;10.094;2022-12-24T02:57:37;8.30;98.90
7218;DHT22;3650;53.580;10.094;2022-12-24T03:00:12;8.30;98.80
7218;DHT22;3650;53.580;10.094;2022-12-24T03:02:50;8.30;98.80
7218;DHT22;3650;53.580;10.094;2022-12-24T03:05:26;8.30;98.70
7218;DHT22;3650;53.580;10.094;2022-12-24T03:07:59;8.20;98.70
7218;DHT22;3650;53.580;10.094;2022-12-24T03:10:31;8.20;98.60
7218;DHT22;3650;53.580;10.094;2022-12-24T03:13:03;8.30;98.70
7218;DHT22;3650;53.580;10.094;2022-12-24T03:15:33;8.20;98.70
7218;DHT22;3650;53.580;10.094;2022-12-24T03:18:01;8.20;98.80
7218;DHT22;3650;53.580;10.094;2022-12-24T03:20:34;8.20;98.70
7218;DHT22;3650;53.580;10.094;2022-12-24T03:23:02;8.20;98.00
7218;DHT22;3650;53.580;10.094;2022-12-24T03:25:30;8.10;98.40
7218;DHT22;3650;53.580;10.094;2022-12-24T03:27:58;8.10;98.80
7218;DHT22;3650;53.580;10.094;2022-12-24T03:30:27;8.00;98.40
7218;DHT22;3650;53.580;10.094;2022-12-24T03:32:55;8.00;98.80
7218;DHT22;3650;53.580;10.094;2022-12-24T03:35:22;7.90;98.70
7218;DHT22;3650;53.580;10.094;2022-12-24T03:37:49;8.00;99.30
7218;DHT22;3650;53.580;10.094;2022-12-24T03:40:16;7.90;99.40
7218;DHT22;3650;53.580;10.094;2022-12-24T03:42:43;7.90;99.70
7218;DHT22;3650;53.580;10.094;2022-12-24T03:45:10;7.80;99.50
7218;DHT22;3650;53.580;10.094;2022-12-24T03:47:36;7.80;99.90
7218;DHT22;3650;53.580;10.094;2022-12-24T03:50:06;7.80;99.90
7218;DHT22;3650;53.580;10.094;2022-12-24T03:52:33;7.80;99.90
7218;DHT22;3650;53.580;10.094;2022-12-24T03:54:59;7.90;99.90
7218;DHT22;3650;53.580;10.094;2022-12-24T03:57:26;7.90;99.90
7218;DHT22;3650;53.580;10.094;2022-12-24T03:59:53;7.90;99.90
7218;DHT22;3650;53.580;10.094;2022-12-24T04:02:20;7.90;99.90
7218;DHT22;3650;53.580;10.094;2022-12-24T04:04:47;7.90;99.90
7218;DHT22;3650;53.580;10.094;2022-12-24T04:07:15;7.90;99.90
7218;DHT22;3650;53.580;10.094;2022-12-24T04:09:41;7.90;99.90
7218;DHT22;3650;53.580;10.094;2022-12-24T04:12:08;7.90;99.90
7218;DHT22;3650;53.580;10.094;2022-12-24T04:14:35;7.80;99.90
7218;DHT22;3650;53.580;10.094;2022-12-24T04:17:02;7.80;99.90
7218;DHT22;3650;53.580;10.094;2022-12-24T04:19:28;7.80;99.90
7218;DHT22;3650;53.580;10.094;2022-12-24T04:21:55;7.90;99.90
7218;DHT22;3650;53.580;10.094;2022-12-24T04:24:24;7.90;99.90
7218;DHT22;3650;53.580;10.094;2022-12-24T04:26:50;7.90;99.90
7218;DHT22;3650;53.580;10.094;2022-12-24T04:29:17;7.90;99.90
7218;DHT22;3650;53.580;10.094;2022-12-24T04:31:44;7.90;99.90
7218;DHT22;3650;53.580;10.094;2022-12-24T04:34:11;7.90;99.90
7218;DHT22;3650;53.580;10.094;2022-12-24T04:36:37;7.90;99.90
7218;DHT22;3650;53.580;10.094;2022-12-24T04:39:04;8.00;99.90
7218;DHT22;3650;53.580;10.094;2022-12-24T04:41:32;8.00;99.90
7218;DHT22;3650;53.580;10.094;2022-12-24T04:43:59;7.90;99.90
7218;DHT22;3650;53.580;10.094;2022-12-24T04:46:27;7.90;99.90
7218;DHT22;3650;53.580;10.094;2022-12-24T04:48:56;7.90;99.90
7218;DHT22;3650;53.580;10.094;2022-12-24T04:51:24;8.00;99.90
7218;DHT22;3650;53.580;10.094;2022-12-24T04:53:53;8.00;99.90
7218;DHT22;3650;53.580;10.094;2022-12-24T04:56:21;8.00;99.90
7218;DHT22;3650;53.580;10.094;2022-12-24T04:58:50;8.00;99.90
7218;DHT22;3650;53.580;10.094;2022-12-24T05:01:19;8.00;99.90
7218;DHT22;3650;53.580;10.094;2022-12-24T05:03:46;8.00;99.90
7218;DHT22;3650;53.580;10.094;2022-12-24T05:06:16;8.00;99.90
7218;DHT22;3650;53.580;10.094;2022-12-24T05:08:44;8.00;99.90
7218;DHT22;3650;53.580;10.094;2022-12-24T05:11:11;8.00;99.90
7218;DHT22;3650;53.580;10.094;2022-12-24T05:13:40;8.00;99.90
7218;DHT22;3650;53.580;10.094;2022-12-24T05:16:09;8.10;99.90
7218;DHT22;3650;53.580;10.094;2022-12-24T05:18:37;8.10;99.90
7218;DHT22;3650;53.580;10.094;2022-12-24T05:21:07;8.10;99.90
7218;DHT22;3650;53.580;10.094;2022-12-24T05:23:36;8.10;99.90
7218;DHT22;3650;53.580;10.094;2022-12-24T05:26:27;8.10;99.90
7218;DHT22;3650;53.580;10.094;2022-12-24T05:28:56;8.10;99.90
7218;DHT22;3650;53.580;10.094;2022-12-24T05:31:26;8.10;99.90
7218;DHT22;3650;53.580;10.094;2022-12-24T05:33:53;8.10;99.90
7218;DHT22;3650;53.580;10.094;2022-12-24T05:36:20;8.10;99.90
7218;DHT22;3650;53.580;10.094;2022-12-24T05:38:47;8.10;99.90
7218;DHT22;3650;53.580;10.094;2022-12-24T05:41:14;8.10;99.90
7218;DHT22;3650;53.580;10.094;2022-12-24T05:43:41;8.10;99.90
7218;DHT22;3650;53.580;10.094;2022-12-24T05:46:11;8.10;99.90
7218;DHT22;3650;53.580;10.094;2022-12-24T05:48:40;8.10;99.90
7218;DHT22;3650;53.580;10.094;2022-12-24T05:51:09;8.20;99.90
7218;DHT22;3650;53.580;10.094;2022-12-24T05:53:36;8.10;99.90
7218;DHT22;3650;53.580;10.094;2022-12-24T05:56:04;8.20;99.90
7218;DHT22;3650;53.580;10.094;2022-12-24T05:58:31;8.10;99.80
7218;DHT22;3650;53.580;10.094;2022-12-24T06:01:00;8.10;99.80
7218;DHT22;3650;53.580;10.094;2022-12-24T06:03:26;8.10;99.80
7218;DHT22;3650;53.580;10.094;2022-12-24T06:05:59;8.20;99.80
7218;DHT22;3650;53.580;10.094;2022-12-24T06:08:26;8.20;99.80
7218;DHT22;3650;53.580;10.094;2022-12-24T06:10:55;8.20;99.70
7218;DHT22;3650;53.580;10.094;2022-12-24T06:13:22;8.10;99.50
7218;DHT22;3650;53.580;10.094;2022-12-24T06:15:50;8.10;99.60
7218;DHT22;3650;53.580;10.094;2022-12-24T06:18:17;8.10;99.20
7218;DHT22;3650;53.580;10.094;2022-12-24T06:20:43;8.10;99.30
7218;DHT22;3650;53.580;10.094;2022-12-24T06:23:12;8.20;99.30
7218;DHT22;3650;53.580;10.094;2022-12-24T06:25:38;8.10;99.10
7218;DHT22;3650;53.580;10.094;2022-12-24T06:28:05;8.10;99.10
7218;DHT22;3650;53.580;10.094;2022-12-24T06:30:32;8.10;99.10
7218;DHT22;3650;53.580;10.094;2022-12-24T06:32:59;8.10;99.10
7218;DHT22;3650;53.580;10.094;2022-12-24T06:35:26;8.20;99.10
7218;DHT22;3650;53.580;10.094;2022-12-24T06:37:52;8.20;99.10
7218;DHT22;3650;53.580;10.094;2022-12-24T06:40:20;8.10;99.00
7218;DHT22;3650;53.580;10.094;2022-12-24T06:42:47;8.20;98.90
7218;DHT22;3650;53.580;10.094;2022-12-24T06:45:14;8.10;98.80
7218;DHT22;3650;53.580;10.094;2022-12-24T06:47:41;8.10;98.80
7218;DHT22;3650;53.580;10.094;2022-12-24T06:50:09;8.10;98.80
7218;DHT22;3650;53.580;10.094;2022-12-24T06:52:36;8.10;98.60
7218;DHT22;3650;53.580;10.094;2022-12-24T06:55:04;8.10;98.70
7218;DHT22;3650;53.580;10.094;2022-12-24T06:57:32;8.10;98.40
7218;DHT22;3650;53.580;10.094;2022-12-24T06:59:59;8.10;98.40
7218;DHT22;3650;53.580;10.094;2022-12-24T07:02:26;8.10;98.40
7218;DHT22;3650;53.580;10.094;2022-12-24T07:04:53;8.10;98.40
7218;DHT22;3650;53.580;10.094;2022-12-24T07:07:20;8.10;98.40
7218;DHT22;3650;53.580;10.094;2022-12-24T07:09:46;8.10;98.40
7218;DHT22;3650;53.580;10.094;2022-12-24T07:12:13;8.10;98.40
7218;DHT22;3650;53.580;10.094;2022-12-24T07:14:41;8.00;98.50
7218;DHT22;3650;53.580;10.094;2022-12-24T07:17:08;8.10;98.60
7218;DHT22;3650;53.580;10.094;2022-12-24T07:19:35;8.00;98.30
7218;DHT22;3650;53.580;10.094;2022-12-24T07:22:01;8.10;98.40
7218;DHT22;3650;53.580;10.094;2022-12-24T07:24:28;8.00;98.40
7218;DHT22;3650;53.580;10.094;2022-12-24T07:26:55;8.00;98.50
7218;DHT22;3650;53.580;10.094;2022-12-24T07:29:22;8.00;98.50
7218;DHT22;3650;53.580;10.094;2022-12-24T07:31:50;8.00;98.50
7218;DHT22;3650;53.580;10.094;2022-12-24T07:34:17;8.00;98.30
7218;DHT22;3650;53.580;10.094;2022-12-24T07:36:44;8.00;98.30
7218;DHT22;3650;53.580;10.094;2022-12-24T07:39:11;8.00;98.40
7218;DHT22;3650;53.580;10.094;2022-12-24T07:41:37;8.00;98.60
7218;DHT22;3650;53.580;10.094;2022-12-24T07:44:04;8.00;98.70
7218;DHT22;3650;53.580;10.094;2022-12-24T07:46:31;8.00;98.70
7218;DHT22;3650;53.580;10.094;2022-12-24T07:48:59;8.00;98.60
7218;DHT22;3650;53.580;10.094;2022-12-24T07:51:26;8.00;98.60
7218;DHT22;3650;53.580;10.094;2022-12-24T07:53:53;8.00;98.50
7218;DHT22;3650;53.580;10.094;2022-12-24T07:56:19;8.00;98.50
7218;DHT22;3650;53.580;10.094;2022-12-24T07:58:46;8.00;98.60
7218;DHT22;3650;53.580;10.094;2022-12-24T08:01:15;8.00;98.70
7218;DHT22;3650;53.580;10.094;2022-12-24T08:03:42;8.00;98.80
7218;DHT22;3650;53.580;10.094;2022-12-24T08:06:10;8.00;98.90
7218;DHT22;3650;53.580;10.094;2022-12-24T08:08:37;8.00;98.80
7218;DHT22;3650;53.580;10.094;2022-12-24T08:11:05;8.00;98.90
7218;DHT22;3650;53.580;10.094;2022-12-24T08:13:32;8.00;98.90
7218;DHT22;3650;53.580;10.094;2022-12-24T08:16:00;8.00;98.90
7218;DHT22;3650;53.580;10.094;2022-12-24T08:18:26;8.00;99.00
7218;DHT22;3650;53.580;10.094;2022-12-24T08:20:53;8.00;99.00
7218;DHT22;3650;53.580;10.094;2022-12-24T08:23:21;8.00;99.00
7218;DHT22;3650;53.580;10.094;2022-12-24T08:25:49;8.00;99.00
7218;DHT22;3650;53.580;10.094;2022-12-24T08:28:18;8.00;99.10
7218;DHT22;3650;53.580;10.094;2022-12-24T08:30:47;8.00;99.20
7218;DHT22;3650;53.580;10.094;2022-12-24T08:33:14;8.00;99.20
7218;DHT22;3650;53.580;10.094;2022-12-24T08:35:46;8.00;99.30
7218;DHT22;3650;53.580;10.094;2022-12-24T08:38:14;8.00;99.30
7218;DHT22;3650;53.580;10.094;2022-12-24T08:40:42;8.00;99.30
7218;DHT22;3650;53.580;10.094;2022-12-24T08:43:09;8.00;99.30
7218;DHT22;3650;53.580;10.094;2022-12-24T08:45:38;8.00;99.40
7218;DHT22;3650;53.580;10.094;2022-12-24T08:48:05;8.00;99.40
7218;DHT22;3650;53.580;10.094;2022-12-24T08:50:32;8.00;99.40
7218;DHT22;3650;53.580;10.094;2022-12-24T08:52:59;8.00;99.40
7218;DHT22;3650;53.580;10.094;2022-12-24T08:55:26;8.00;99.50
7218;DHT22;3650;53.580;10.094;2022-12-24T08:57:54;8.00;99.80
7218;DHT22;3650;53.580;10.094;2022-12-24T09:00:21;8.00;99.40
7218;DHT22;3650;53.580;10.094;2022-12-24T09:02:48;8.00;99.40
7218;DHT22;3650;53.580;10.094;2022-12-24T09:05:15;8.00;99.50
7218;DHT22;3650;53.580;10.094;2022-12-24T09:07:42;8.00;99.50
7218;DHT22;3650;53.580;10.094;2022-12-24T09:10:10;8.00;99.60
7218;DHT22;3650;53.580;10.094;2022-12-24T09:12:37;8.00;99.70
7218;DHT22;3650;53.580;10.094;2022-12-24T09:15:06;8.00;99.60
7218;DHT22;3650;53.580;10.094;2022-12-24T09:17:34;8.00;99.60
7218;DHT22;3650;53.580;10.094;2022-12-24T09:20:01;8.00;99.60
7218;DHT22;3650;53.580;10.094;2022-12-24T09:22:27;8.10;99.60
7218;DHT22;3650;53.580;10.094;2022-12-24T09:24:54;8.10;99.60
7218;DHT22;3650;53.580;10.094;2022-12-24T09:27:22;8.00;99.60
7218;DHT22;3650;53.580;10.094;2022-12-24T09:29:49;8.00;99.60
7218;DHT22;3650;53.580;10.094;2022-12-24T09:32:17;8.00;99.80
7218;DHT22;3650;53.580;10.094;2022-12-24T09:34:43;8.10;99.90
7218;DHT22;3650;53.580;10.094;2022-12-24T09:37:10;8.10;99.90
7218;DHT22;3650;53.580;10.094;2022-12-24T09:39:37;8.10;99.80
7218;DHT22;3650;53.580;10.094;2022-12-24T09:42:13;8.10;99.70
7218;DHT22;3650;53.580;10.094;2022-12-24T09:44:45;8.10;99.70
7218;DHT22;3650;53.580;10.094;2022-12-24T09:47:25;8.10;99.70
7218;DHT22;3650;53.580;10.094;2022-12-24T09:49:55;8.10;99.70
7218;DHT22;3650;53.580;10.094;2022-12-24T09:52:29;8.10;99.70
7218;DHT22;3650;53.580;10.094;2022-12-24T09:55:04;8.10;99.50
7218;DHT22;3650;53.580;10.094;2022-12-24T09:57:35;8.20;99.40
7218;DHT22;3650;53.580;10.094;2022-12-24T10:00:04;8.10;99.30
7218;DHT22;3650;53.580;10.094;2022-12-24T10:02:34;8.20;99.40
7218;DHT22;3650;53.580;10.094;2022-12-24T10:05:01;8.10;99.50
7218;DHT22;3650;53.580;10.094;2022-12-24T10:07:35;8.20;99.70
7218;DHT22;3650;53.580;10.094;2022-12-24T10:10:15;8.20;99.70
7218;DHT22;3650;53.580;10.094;2022-12-24T10:12:50;8.20;99.60
7218;DHT22;3650;53.580;10.094;2022-12-24T10:15:26;8.20;99.60
7218;DHT22;3650;53.580;10.094;2022-12-24T10:18:06;8.20;99.60
7218;DHT22;3650;53.580;10.094;2022-12-24T10:20:43;8.20;99.60
7218;DHT22;3650;53.580;10.094;2022-12-24T10:23:18;8.20;99.60
7218;DHT22;3650;53.580;10.094;2022-12-24T10:25:51;8.20;99.70
7218;DHT22;3650;53.580;10.094;2022-12-24T10:28:23;8.20;99.80
7218;DHT22;3650;53.580;10.094;2022-12-24T10:31:00;8.20;99.80
7218;DHT22;3650;53.580;10.094;2022-12-24T10:33:31;8.30;99.80
7218;DHT22;3650;53.580;10.094;2022-12-24T10:36:01;8.30;99.90
7218;DHT22;3650;53.580;10.094;2022-12-24T10:38:28;8.20;99.70
7218;DHT22;3650;53.580;10.094;2022-12-24T10:40:58;8.20;99.50
7218;DHT22;3650;53.580;10.094;2022-12-24T10:43:28;8.20;99.50
7218;DHT22;3650;53.580;10.094;2022-12-24T10:45:59;8.30;99.60
7218;DHT22;3650;53.580;10.094;2022-12-24T10:48:30;8.20;99.70
7218;DHT22;3650;53.580;10.094;2022-12-24T10:51:01;8.30;99.90
7218;DHT22;3650;53.580;10.094;2022-12-24T10:53:36;8.30;99.90
7218;DHT22;3650;53.580;10.094;2022-12-24T10:56:04;8.30;99.90
7218;DHT22;3650;53.580;10.094;2022-12-24T10:58:32;8.30;99.90
7218;DHT22;3650;53.580;10.094;2022-12-24T11:00:59;8.30;99.90
7218;DHT22;3650;53.580;10.094;2022-12-24T11:03:32;8.30;99.90
7218;DHT22;3650;53.580;10.094;2022-12-24T11:06:05;8.30;99.90
7218;DHT22;3650;53.580;10.094;2022-12-24T11:08:33;8.30;99.90
7218;DHT22;3650;53.580;10.094;2022-12-24T11:11:02;8.30;99.90
7218;DHT22;3650;53.580;10.094;2022-12-24T11:13:31;8.20;99.70
7218;DHT22;3650;53.580;10.094;2022-12-24T11:16:02;8.30;99.80
7218;DHT22;3650;53.580;10.094;2022-12-24T11:18:32;8.20;99.90
7218;DHT22;3650;53.580;10.094;2022-12-24T11:21:00;8.20;99.90
7218;DHT22;3650;53.580;10.094;2022-12-24T11:23:28;8.20;99.90
7218;DHT22;3650;53.580;10.094;2022-12-24T11:25:56;8.30;99.90
7218;DHT22;3650;53.580;10.094;2022-12-24T11:28:24;8.30;99.90
7218;DHT22;3650;53.580;10.094;2022-12-24T11:31:01;8.30;99.90
7218;DHT22;3650;53.580;10.094;2022-12-24T11:33:28;8.30;99.90
7218;DHT22;3650;53.580;10.094;2022-12-24T11:36:01;8.30;99.90
7218;DHT22;3650;53.580;10.094;2022-12-24T11:38:32;8.30;99.90
7218;DHT22;3650;53.580;10.094;2022-12-24T11:41:02;8.30;99.90
7218;DHT22;3650;53.580;10.094;2022-12-24T11:43:36;8.40;99.90
7218;DHT22;3650;53.580;10.094;2022-12-24T11:46:18;8.40;99.90
7218;DHT22;3650;53.580;10.094;2022-12-24T11:48:45;8.40;99.90
7218;DHT22;3650;53.580;10.094;2022-12-24T11:51:22;8.40;99.90
7218;DHT22;3650;53.580;10.094;2022-12-24T11:53:50;8.40;99.90
7218;DHT22;3650;53.580;10.094;2022-12-24T11:56:28;8.40;99.90
7218;DHT22;3650;53.580;10.094;2022-12-24T11:59:01;8.50;99.90
7218;DHT22;3650;53.580;10.094;2022-12-24T12:01:35;8.50;99.90
7218;DHT22;3650;53.580;10.094;2022-12-24T12:04:05;8.50;99.90
7218;DHT22;3650;53.580;10.094;2022-12-24T12:06:38;8.50;99.90
7218;DHT22;3650;53.580;10.094;2022-12-24T12:09:09;8.50;99.90
7218;DHT22;3650;53.580;10.094;2022-12-24T12:11:39;8.50;99.90
7218;DHT22;3650;53.580;10.094;2022-12-24T12:14:12;8.50;99.90
7218;DHT22;3650;53.580;10.094;2022-12-24T12:16:45;8.50;99.90
7218;DHT22;3650;53.580;10.094;2022-12-24T12:19:27;8.50;99.90
7218;DHT22;3650;53.580;10.094;2022-12-24T12:21:58;8.50;99.90
7218;DHT22;3650;53.580;10.094;2022-12-24T12:24:29;8.50;99.90
7218;DHT22;3650;53.580;10.094;2022-12-24T12:27:06;8.60;99.90
7218;DHT22;3650;53.580;10.094;2022-12-24T12:29:43;8.50;99.90
7218;DHT22;3650;53.580;10.094;2022-12-24T12:32:15;8.50;99.90
7218;DHT22;3650;53.580;10.094;2022-12-24T12:35:04;8.60;99.90
7218;DHT22;3650;53.580;10.094;2022-12-24T12:37:37;8.60;99.90
7218;DHT22;3650;53.580;10.094;2022-12-24T12:40:12;8.70;99.90
7218;DHT22;3650;53.580;10.094;2022-12-24T12:42:42;8.60;99.90
7218;DHT22;3650;53.580;10.094;2022-12-24T12:45:31;8.60;99.90
7218;DHT22;3650;53.580;10.094;2022-12-24T12:50:59;8.60;99.90
7218;DHT22;3650;53.580;10.094;2022-12-24T12:53:44;8.50;99.90
7218;DHT22;3650;53.580;10.094;2022-12-24T12:56:23;8.60;99.90
7218;DHT22;3650;53.580;10.094;2022-12-24T12:58:54;8.60;99.90
7218;DHT22;3650;53.580;10.094;2022-12-24T13:01:33;8.60;99.90
7218;DHT22;3650;53.580;10.094;2022-12-24T13:07:25;8.70;99.90
7218;DHT22;3650;53.580;10.094;2022-12-24T13:10:37;8.70;99.90
7218;DHT22;3650;53.580;10.094;2022-12-24T13:13:38;8.70;99.90
7218;DHT22;3650;53.580;10.094;2022-12-24T13:19:25;8.80;99.90
7218;DHT22;3650;53.580;10.094;2022-12-24T13:21:55;8.80;99.90
7218;DHT22;3650;53.580;10.094;2022-12-24T13:24:24;8.80;99.90
7218;DHT22;3650;53.580;10.094;2022-12-24T13:27:05;8.90;99.90
7218;DHT22;3650;53.580;10.094;2022-12-24T13:29:42;8.90;99.90
7218;DHT22;3650;53.580;10.094;2022-12-24T13:32:36;8.90;99.90
7218;DHT22;3650;53.580;10.094;2022-12-24T13:35:30;9.00;99.90
7218;DHT22;3650;53.580;10.094;2022-12-24T13:38:29;9.10;99.90
7218;DHT22;3650;53.580;10.094;2022-12-24T13:44:29;9.10;99.90
7218;DHT22;3650;53.580;10.094;2022-12-24T13:49:44;9.10;99.90
7218;DHT22;3650;53.580;10.094;2022-12-24T13:52:21;9.10;99.90
7218;DHT22;3650;53.580;10.094;2022-12-24T13:55:00;9.20;99.90
7218;DHT22;3650;53.580;10.094;2022-12-24T13:57:32;9.20;99.90
7218;DHT22;3650;53.580;10.094;2022-12-24T14:00:05;9.20;99.90
7218;DHT22;3650;53.580;10.094;2022-12-24T14:02:37;9.20;99.90
7218;DHT22;3650;53.580;10.094;2022-12-24T14:05:07;9.20;99.90
7218;DHT22;3650;53.580;10.094;2022-12-24T14:07:45;9.20;99.90
7218;DHT22;3650;53.580;10.094;2022-12-24T14:10:19;9.20;99.90
7218;DHT22;3650;53.580;10.094;2022-12-24T14:12:49;9.30;99.90
7218;DHT22;3650;53.580;10.094;2022-12-24T14:15:54;9.30;99.90
7218;DHT22;3650;53.580;10.094;2022-12-24T14:18:26;9.30;99.90
7218;DHT22;3650;53.580;10.094;2022-12-24T14:20:55;9.30;99.90
7218;DHT22;3650;53.580;10.094;2022-12-24T14:23:31;9.30;99.90
7218;DHT22;3650;53.580;10.094;2022-12-24T14:26:00;9.40;99.90
7218;DHT22;3650;53.580;10.094;2022-12-24T14:28:33;9.40;99.90
7218;DHT22;3650;53.580;10.094;2022-12-24T14:31:03;9.40;99.90
7218;DHT22;3650;53.580;10.094;2022-12-24T14:33:31;9.40;99.90
7218;DHT22;3650;53.580;10.094;2022-12-24T14:36:00;9.40;99.90
7218;DHT22;3650;53.580;10.094;2022-12-24T14:38:28;9.40;99.90
7218;DHT22;3650;53.580;10.094;2022-12-24T14:41:02;9.40;99.90
7218;DHT22;3650;53.580;10.094;2022-12-24T14:43:44;9.50;99.90
7218;DHT22;3650;53.580;10.094;2022-12-24T14:46:21;9.50;99.90
7218;DHT22;3650;53.580;10.094;2022-12-24T14:48:52;9.50;99.90
7218;DHT22;3650;53.580;10.094;2022-12-24T14:51:26;9.50;99.90
7218;DHT22;3650;53.580;10.094;2022-12-24T14:54:31;9.50;99.90
7218;DHT22;3650;53.580;10.094;2022-12-24T14:57:20;9.50;99.90
7218;DHT22;3650;53.580;10.094;2022-12-24T14:59:50;9.50;99.90
7218;DHT22;3650;53.580;10.094;2022-12-24T15:02:36;9.50;99.90
7218;DHT22;3650;53.580;10.094;2022-12-24T15:05:11;9.50;99.90
7218;DHT22;3650;53.580;10.094;2022-12-24T15:07:42;9.50;99.90
7218;DHT22;3650;53.580;10.094;2022-12-24T15:10:23;9.50;99.90
7218;DHT22;3650;53.580;10.094;2022-12-24T15:12:50;9.50;99.90
7218;DHT22;3650;53.580;10.094;2022-12-24T15:15:18;9.50;99.90
7218;DHT22;3650;53.580;10.094;2022-12-24T15:17:47;9.50;99.90
7218;DHT22;3650;53.580;10.094;2022-12-24T15:20:16;9.50;99.90
7218;DHT22;3650;53.580;10.094;2022-12-24T15:22:45;9.40;99.90
7218;DHT22;3650;53.580;10.094;2022-12-24T15:25:18;9.40;99.90
7218;DHT22;3650;53.580;10.094;2022-12-24T15:27:45;9.40;99.90
7218;DHT22;3650;53.580;10.094;2022-12-24T15:30:15;9.30;99.90
7218;DHT22;3650;53.580;10.094;2022-12-24T15:32:42;9.30;99.90
7218;DHT22;3650;53.580;10.094;2022-12-24T15:35:33;9.30;99.90
7218;DHT22;3650;53.580;10.094;2022-12-24T15:38:00;9.30;99.90
7218;DHT22;3650;53.580;10.094;2022-12-24T15:40:28;9.30;99.90
7218;DHT22;3650;53.580;10.094;2022-12-24T15:42:58;9.30;99.90
7218;DHT22;3650;53.580;10.094;2022-12-24T15:45:26;9.30;99.90
7218;DHT22;3650;53.580;10.094;2022-12-24T15:47:56;9.30;99.90
7218;DHT22;3650;53.580;10.094;2022-12-24T15:50:28;9.30;99.90
7218;DHT22;3650;53.580;10.094;2022-12-24T15:53:00;9.20;99.90
7218;DHT22;3650;53.580;10.094;2022-12-24T15:55:30;9.30;99.90
7218;DHT22;3650;53.580;10.094;2022-12-24T15:57:59;9.20;99.90
7218;DHT22;3650;53.580;10.094;2022-12-24T16:00:27;9.30;99.90
7218;DHT22;3650;53.580;10.094;2022-12-24T16:03:09;9.30;99.90
7218;DHT22;3650;53.580;10.094;2022-12-24T16:05:36;9.30;99.90
7218;DHT22;3650;53.580;10.094;2022-12-24T16:08:22;9.30;99.90
7218;DHT22;3650;53.580;10.094;2022-12-24T16:10:52;9.30;99.90
7218;DHT22;3650;53.580;10.094;2022-12-24T16:13:21;9.40;99.90
7218;DHT22;3650;53.580;10.094;2022-12-24T16:15:52;9.40;99.90
7218;DHT22;3650;53.580;10.094;2022-12-24T16:18:24;9.40;99.90
7218;DHT22;3650;53.580;10.094;2022-12-24T16:20:52;9.40;99.90
7218;DHT22;3650;53.580;10.094;2022-12-24T16:23:22;9.40;99.90
7218;DHT22;3650;53.580;10.094;2022-12-24T16:25:50;9.50;99.90
7218;DHT22;3650;53.580;10.094;2022-12-24T16:28:17;9.50;99.90
7218;DHT22;3650;53.580;10.094;2022-12-24T16:30:46;9.50;99.90
7218;DHT22;3650;53.580;10.094;2022-12-24T16:33:14;9.50;99.90
7218;DHT22;3650;53.580;10.094;2022-12-24T16:35:42;9.60;99.90
7218;DHT22;3650;53.580;10.094;2022-12-24T16:38:09;9.60;99.90
7218;DHT22;3650;53.580;10.094;2022-12-24T16:40:37;9.60;99.90
7218;DHT22;3650;53.580;10.094;2022-12-24T16:43:04;9.60;99.90